createdAt,value
2023-04-30T00:00:35.838Z,2.60
2023-04-30T00:03:40.390Z,2.75
2023-04-30T00:06:44.836Z,2.80
2023-04-30T00:09:51.241Z,2.88
2023-04-30T00:12:57.141Z,3.25
2023-04-30T00:16:01.598Z,3.30
2023-04-30T00:19:06.343Z,3.03
2023-04-30T00:22:10.696Z,2.95
2023-04-30T00:25:16.662Z,2.80
2023-04-30T00:28:21.261Z,3.03
2023-04-30T00:31:26.079Z,2.60
2023-04-30T00:34:31.015Z,2.75
2023-04-30T00:37:35.284Z,2.83
2023-04-30T00:40:42.362Z,3.15
2023-04-30T00:43:47.190Z,2.83
2023-04-30T00:46:51.659Z,3.17
2023-04-30T00:49:56.350Z,3.65
2023-04-30T00:53:01.775Z,3.15
2023-04-30T00:56:09.214Z,2.47
2023-04-30T00:59:14.248Z,2.80
2023-04-30T01:02:19.138Z,2.42
2023-04-30T01:05:23.679Z,2.88
2023-04-30T01:08:28.290Z,3.20
2023-04-30T01:12:00.293Z,3.72
2023-04-30T01:15:34.623Z,3.75
2023-04-30T01:18:46.696Z,3.38
2023-04-30T01:21:51.179Z,2.70
2023-04-30T01:25:29.512Z,3.58
2023-04-30T01:28:38.225Z,2.83
2023-04-30T01:31:45.094Z,3.60
2023-04-30T01:34:49.596Z,3.00
2023-04-30T01:38:19.967Z,3.10
2023-04-30T01:41:50.896Z,3.17
2023-04-30T01:45:14.681Z,2.85
2023-04-30T01:48:48.434Z,3.13
2023-04-30T01:52:31.719Z,3.13
2023-04-30T01:55:43.550Z,2.88
2023-04-30T01:58:50.115Z,3.22
2023-04-30T02:01:56.266Z,3.67
2023-04-30T02:05:01.000Z,3.58
2023-04-30T02:08:06.487Z,3.13
2023-04-30T02:11:11.940Z,4.28
2023-04-30T02:14:17.047Z,3.03
2023-04-30T02:17:22.914Z,3.30
2023-04-30T02:20:28.018Z,3.53
2023-04-30T02:23:32.531Z,3.50
2023-04-30T02:26:36.907Z,3.95
2023-04-30T02:29:41.790Z,3.72
2023-04-30T02:32:46.497Z,4.15
2023-04-30T02:35:51.227Z,4.03
2023-04-30T02:38:55.818Z,4.60
2023-04-30T02:42:00.816Z,3.70
2023-04-30T02:45:06.140Z,4.30
2023-04-30T02:48:11.484Z,4.60
2023-04-30T02:51:16.150Z,4.00
2023-04-30T02:54:21.220Z,4.00
2023-04-30T02:57:27.005Z,4.32
2023-04-30T03:00:31.623Z,4.07
2023-04-30T03:03:36.394Z,4.00
2023-04-30T03:06:41.202Z,4.05
2023-04-30T03:09:46.892Z,3.75
2023-04-30T03:12:51.705Z,3.22
2023-04-30T03:16:07.197Z,3.80
2023-04-30T03:19:12.050Z,3.75
2023-04-30T03:22:19.499Z,3.90
2023-04-30T03:25:23.791Z,3.10
2023-04-30T03:28:28.394Z,3.22
2023-04-30T03:31:33.092Z,3.28
2023-04-30T03:34:38.250Z,3.45
2023-04-30T03:37:42.827Z,3.50
2023-04-30T03:40:48.771Z,2.85
2023-04-30T03:43:53.497Z,3.30
2023-04-30T03:46:58.294Z,3.35
2023-04-30T03:50:04.068Z,3.30
2023-04-30T03:53:08.781Z,4.13
2023-04-30T03:56:13.745Z,3.65
2023-04-30T03:59:18.458Z,3.88
2023-04-30T04:02:23.507Z,3.72
2023-04-30T04:05:29.318Z,3.58
2023-04-30T04:08:34.171Z,3.42
2023-04-30T04:11:38.710Z,3.63
2023-04-30T04:14:42.877Z,3.70
2023-04-30T04:17:47.239Z,3.60
2023-04-30T04:20:52.178Z,3.95
2023-04-30T04:23:57.722Z,3.85
2023-04-30T04:27:03.892Z,3.85
2023-04-30T04:30:09.299Z,4.10
2023-04-30T04:33:13.938Z,3.83
2023-04-30T04:36:18.771Z,3.65
2023-04-30T04:39:23.555Z,4.00
2023-04-30T04:42:28.114Z,3.85
2023-04-30T04:45:33.591Z,3.90
2023-04-30T04:48:38.173Z,3.22
2023-04-30T04:51:42.313Z,3.60
2023-04-30T04:54:46.826Z,3.70
2023-04-30T04:57:51.355Z,3.35
2023-04-30T05:00:57.440Z,3.70
2023-04-30T05:04:02.624Z,3.70
2023-04-30T05:07:08.066Z,4.43
2023-04-30T05:10:13.207Z,3.25
2023-04-30T05:13:17.792Z,3.25
2023-04-30T05:16:22.422Z,2.63
2023-04-30T05:19:27.334Z,2.63
2023-04-30T05:22:32.039Z,3.25
2023-04-30T05:25:36.784Z,2.70
2023-04-30T05:28:41.274Z,3.08
2023-04-30T05:31:45.745Z,2.72
2023-04-30T05:34:50.161Z,2.97
2023-04-30T05:37:54.601Z,3.13
2023-04-30T05:40:58.782Z,2.47
2023-04-30T05:44:05.010Z,3.33
2023-04-30T05:47:09.702Z,2.97
2023-04-30T05:50:14.609Z,3.38
2023-04-30T05:53:19.508Z,4.20
2023-04-30T05:56:25.361Z,3.60
2023-04-30T05:59:29.926Z,4.03
2023-04-30T06:02:34.737Z,3.38
2023-04-30T06:05:41.644Z,2.63
2023-04-30T06:08:46.674Z,2.28
2023-04-30T06:11:52.112Z,2.35
2023-04-30T06:14:57.561Z,2.45
2023-04-30T06:18:02.382Z,2.22
2023-04-30T06:21:06.931Z,2.63
2023-04-30T06:24:11.392Z,1.98
2023-04-30T06:27:15.979Z,2.33
2023-04-30T06:30:21.351Z,2.08
2023-04-30T06:33:26.180Z,2.30
2023-04-30T06:36:31.627Z,2.15
2023-04-30T06:39:36.368Z,2.33
2023-04-30T06:42:41.193Z,1.52
2023-04-30T06:45:50.824Z,2.72
2023-04-30T06:48:55.621Z,2.20
2023-04-30T06:51:59.889Z,2.05
2023-04-30T06:55:04.645Z,1.90
2023-04-30T06:58:09.436Z,2.10
2023-04-30T07:01:14.277Z,2.13
2023-04-30T07:04:19.669Z,2.20
2023-04-30T07:07:24.236Z,1.63
2023-04-30T07:10:29.482Z,1.90
2023-04-30T07:13:33.883Z,2.05
2023-04-30T07:16:38.604Z,1.90
2023-04-30T07:19:43.623Z,1.80
2023-04-30T07:22:47.910Z,1.92
2023-04-30T07:25:52.359Z,1.98
2023-04-30T07:28:56.974Z,1.88
2023-04-30T07:32:01.912Z,1.70
2023-04-30T07:35:07.422Z,1.60
2023-04-30T07:38:12.000Z,1.95
2023-04-30T07:41:17.784Z,1.77
2023-04-30T07:44:22.499Z,1.95
2023-04-30T07:47:27.244Z,2.08
2023-04-30T07:50:34.195Z,2.05
2023-04-30T07:53:38.992Z,2.28
2023-04-30T07:56:43.585Z,2.33
2023-04-30T07:59:51.287Z,2.05
2023-04-30T08:02:58.659Z,1.75
2023-04-30T08:06:04.083Z,2.20
2023-04-30T08:09:08.885Z,1.58
2023-04-30T08:12:13.169Z,1.52
2023-04-30T08:15:19.270Z,2.03
2023-04-30T08:18:23.626Z,1.85
2023-04-30T08:21:28.385Z,1.52
2023-04-30T08:24:32.875Z,1.90
2023-04-30T08:27:37.451Z,1.83
2023-04-30T08:30:42.254Z,1.90
2023-04-30T08:33:47.169Z,1.55
2023-04-30T08:36:51.927Z,1.30
2023-04-30T08:39:57.163Z,1.33
2023-04-30T08:43:09.734Z,1.35
2023-04-30T08:46:17.141Z,1.20
2023-04-30T08:49:25.916Z,1.50
2023-04-30T08:52:31.284Z,1.30
2023-04-30T08:55:36.569Z,1.60
2023-04-30T08:58:41.549Z,1.70
2023-04-30T09:01:46.447Z,1.70
2023-04-30T09:04:51.187Z,1.50
2023-04-30T09:08:03.529Z,1.40
2023-04-30T09:11:30.532Z,1.35
2023-04-30T09:14:40.601Z,1.35
2023-04-30T09:17:47.051Z,1.50
2023-04-30T09:21:02.099Z,1.42
2023-04-30T09:24:07.192Z,1.40
2023-04-30T09:27:22.793Z,1.35
2023-04-30T09:30:33.150Z,1.20
2023-04-30T09:33:47.450Z,1.45
2023-04-30T09:36:56.041Z,1.33
2023-04-30T09:40:00.610Z,1.23
2023-04-30T09:43:05.171Z,1.40
2023-04-30T09:46:09.674Z,1.50
2023-04-30T09:49:20.100Z,1.42
2023-04-30T09:52:24.818Z,1.70
2023-04-30T09:55:29.860Z,1.60
2023-04-30T09:58:38.940Z,1.40
2023-04-30T10:01:43.760Z,1.38
2023-04-30T10:04:56.204Z,1.65
2023-04-30T10:08:01.703Z,1.25
2023-04-30T10:11:08.366Z,1.25
2023-04-30T10:14:15.307Z,1.73
2023-04-30T10:17:24.073Z,1.35
2023-04-30T10:20:30.129Z,1.60
2023-04-30T10:23:35.006Z,1.70
2023-04-30T10:26:41.823Z,1.90
2023-04-30T10:29:47.780Z,1.75
2023-04-30T10:33:52.162Z,2.30
2023-04-30T10:37:02.962Z,2.05
2023-04-30T10:40:09.906Z,2.05
2023-04-30T10:43:14.762Z,1.85
2023-04-30T10:46:24.059Z,2.10
2023-04-30T10:49:29.436Z,2.17
2023-04-30T10:52:34.307Z,2.53
2023-04-30T10:55:49.072Z,1.90
2023-04-30T10:58:53.984Z,2.72
2023-04-30T11:02:01.850Z,3.10
2023-04-30T11:05:14.834Z,2.28
2023-04-30T11:11:26.049Z,2.88
2023-04-30T11:14:34.126Z,3.33
2023-04-30T11:17:39.446Z,2.90
2023-04-30T11:20:55.176Z,2.03
2023-04-30T11:24:07.337Z,2.50
2023-04-30T11:27:13.911Z,2.72
2023-04-30T11:30:19.209Z,2.47
2023-04-30T11:33:27.023Z,3.10
2023-04-30T11:36:33.928Z,2.17
2023-04-30T11:39:39.536Z,3.03
2023-04-30T11:42:45.933Z,2.70
2023-04-30T11:46:11.830Z,3.00
2023-04-30T11:49:16.881Z,2.20
2023-04-30T11:52:26.176Z,1.90
2023-04-30T11:55:30.999Z,2.65
2023-04-30T11:58:38.649Z,2.40
2023-04-30T12:01:44.158Z,2.13
2023-04-30T12:04:49.224Z,2.28
2023-04-30T12:08:06.785Z,2.00
2023-04-30T12:11:31.959Z,2.40
2023-04-30T12:14:36.947Z,2.05
2023-04-30T12:17:42.428Z,1.40
2023-04-30T12:20:47.119Z,1.88
2023-04-30T12:23:52.670Z,2.00
2023-04-30T12:27:01.857Z,2.10
2023-04-30T12:30:10.970Z,2.13
2023-04-30T12:33:18.971Z,1.85
2023-04-30T12:36:36.591Z,2.22
2023-04-30T12:39:42.091Z,1.80
2023-04-30T12:42:49.601Z,2.05
2023-04-30T12:45:55.906Z,2.20
2023-04-30T12:49:00.825Z,1.67
2023-04-30T12:52:10.383Z,1.88
2023-04-30T12:55:16.866Z,1.50
2023-04-30T12:58:22.327Z,1.77
2023-04-30T13:01:26.973Z,2.28
2023-04-30T13:04:31.628Z,1.60
2023-04-30T13:07:40.691Z,1.50
2023-04-30T13:10:47.905Z,1.38
2023-04-30T13:13:55.030Z,1.95
2023-04-30T13:17:00.117Z,1.90
2023-04-30T13:20:06.647Z,1.30
2023-04-30T13:23:12.002Z,1.67
2023-04-30T13:26:16.602Z,2.30
2023-04-30T13:29:21.163Z,1.90
2023-04-30T13:32:25.738Z,1.50
2023-04-30T13:35:30.616Z,1.52
2023-04-30T13:38:36.119Z,1.90
2023-04-30T13:41:40.950Z,1.52
2023-04-30T13:44:47.772Z,1.45
2023-04-30T13:47:52.496Z,1.50
2023-04-30T13:50:57.215Z,1.35
2023-04-30T13:54:02.089Z,1.27
2023-04-30T13:57:07.637Z,2.08
2023-04-30T14:00:13.664Z,1.38
2023-04-30T14:03:19.430Z,1.77
2023-04-30T14:06:24.170Z,1.67
2023-04-30T14:09:29.334Z,1.45
2023-04-30T14:12:34.473Z,1.45
2023-04-30T14:15:38.817Z,1.20
2023-04-30T14:18:44.374Z,1.60
2023-04-30T14:21:49.159Z,1.38
2023-04-30T14:24:54.119Z,1.30
2023-04-30T14:27:58.663Z,1.58
2023-04-30T14:31:03.902Z,1.30
2023-04-30T14:34:08.455Z,1.40
2023-04-30T14:37:13.401Z,1.58
2023-04-30T14:40:17.972Z,1.30
2023-04-30T14:43:23.591Z,1.00
2023-04-30T14:46:28.196Z,1.00
2023-04-30T14:49:32.953Z,1.20
2023-04-30T14:52:38.598Z,1.15
2023-04-30T14:55:43.595Z,1.45
2023-04-30T14:58:48.235Z,1.13
2023-04-30T15:01:52.824Z,1.20
2023-04-30T15:04:57.388Z,1.17
2023-04-30T15:08:02.263Z,1.02
2023-04-30T15:11:09.661Z,1.20
2023-04-30T15:14:16.858Z,1.20
2023-04-30T15:17:22.234Z,1.05
2023-04-30T15:20:27.197Z,0.90
2023-04-30T15:23:32.144Z,1.02
2023-04-30T15:26:37.223Z,1.23
2023-04-30T15:29:42.009Z,1.00
2023-04-30T15:32:48.760Z,0.90
2023-04-30T15:35:55.307Z,1.33
2023-04-30T15:39:00.135Z,0.98
2023-04-30T15:42:04.990Z,1.05
2023-04-30T15:45:11.168Z,1.00
2023-04-30T15:48:15.994Z,0.90
2023-04-30T15:51:20.705Z,1.10
2023-04-30T15:54:25.876Z,0.80
2023-04-30T15:57:30.608Z,0.60
2023-04-30T16:00:35.538Z,1.05
2023-04-30T16:03:40.609Z,1.30
2023-04-30T16:06:45.654Z,1.10
2023-04-30T16:09:50.344Z,1.10
2023-04-30T16:12:54.924Z,1.23
2023-04-30T16:15:59.550Z,1.00
2023-04-30T16:19:04.175Z,0.93
2023-04-30T16:22:11.673Z,0.95
2023-04-30T16:25:16.616Z,0.95
2023-04-30T16:28:23.533Z,1.00
2023-04-30T16:31:28.363Z,1.15
2023-04-30T16:34:33.371Z,0.70
2023-04-30T16:37:37.924Z,1.00
2023-04-30T16:40:42.756Z,0.90
2023-04-30T16:43:47.741Z,0.80
2023-04-30T16:46:52.304Z,0.90
2023-04-30T16:49:58.576Z,1.00
2023-04-30T16:53:03.411Z,0.90
2023-04-30T16:56:08.162Z,0.63
2023-04-30T16:59:13.257Z,0.80
2023-04-30T17:02:18.254Z,0.90
2023-04-30T17:05:23.466Z,0.70
2023-04-30T17:08:27.979Z,0.70
2023-04-30T17:11:34.043Z,1.00
2023-04-30T17:14:38.906Z,0.80
2023-04-30T17:17:43.877Z,0.80
2023-04-30T17:20:49.669Z,0.65
2023-04-30T17:23:54.396Z,0.82
2023-04-30T17:27:00.939Z,0.93
2023-04-30T17:30:08.659Z,0.73
2023-04-30T17:33:13.600Z,0.70
2023-04-30T17:36:18.666Z,0.70
2023-04-30T17:39:23.974Z,0.93
2023-04-30T17:42:28.689Z,0.50
2023-04-30T17:45:33.506Z,0.85
2023-04-30T17:48:38.209Z,1.00
2023-04-30T17:51:43.228Z,1.35
2023-04-30T17:54:48.397Z,1.00
2023-04-30T17:57:53.282Z,1.13
2023-04-30T18:00:59.071Z,0.80
2023-04-30T18:04:08.456Z,0.98
2023-04-30T18:07:13.337Z,0.80
2023-04-30T18:10:17.918Z,0.60
2023-04-30T18:13:23.339Z,0.90
2023-04-30T18:16:28.281Z,0.68
2023-04-30T18:19:33.030Z,0.73
2023-04-30T18:22:43.426Z,0.60
2023-04-30T18:25:49.014Z,0.70
2023-04-30T18:28:53.956Z,0.60
2023-04-30T18:31:58.575Z,0.80
2023-04-30T18:35:04.770Z,0.80
2023-04-30T18:38:09.453Z,0.80
2023-04-30T18:41:14.267Z,1.02
2023-04-30T18:44:19.828Z,0.80
2023-04-30T18:47:25.231Z,0.70
2023-04-30T18:50:30.142Z,0.80
2023-04-30T18:53:36.738Z,0.65
2023-04-30T18:56:41.401Z,0.63
2023-04-30T18:59:46.250Z,0.60
2023-04-30T19:02:51.752Z,0.63
2023-04-30T19:05:57.570Z,0.60
2023-04-30T19:09:02.593Z,0.60
2023-04-30T19:12:07.404Z,0.80
2023-04-30T19:15:14.940Z,0.70
2023-04-30T19:18:20.170Z,0.70
2023-04-30T19:21:27.206Z,0.70
2023-04-30T19:24:31.366Z,0.70
2023-04-30T19:27:36.313Z,0.75
2023-04-30T19:30:41.527Z,0.77
2023-04-30T19:33:46.282Z,0.90
2023-04-30T19:36:51.314Z,0.65
2023-04-30T19:39:55.902Z,0.77
2023-04-30T19:43:00.657Z,0.82
2023-04-30T19:46:05.467Z,0.60
2023-04-30T19:49:09.983Z,1.00
2023-04-30T19:52:15.053Z,0.85
2023-04-30T19:55:19.582Z,0.60
2023-04-30T19:58:24.147Z,0.70
2023-04-30T20:01:29.397Z,0.80
2023-04-30T20:04:34.087Z,0.70
2023-04-30T20:07:38.640Z,0.80
2023-04-30T20:10:43.846Z,0.90
2023-04-30T20:13:48.306Z,1.00
2023-04-30T20:16:54.854Z,1.02
2023-04-30T20:20:00.259Z,0.70
2023-04-30T20:23:16.904Z,0.98
2023-04-30T20:26:21.850Z,0.73
2023-04-30T20:29:26.400Z,0.77
2023-04-30T20:32:31.669Z,0.70
2023-04-30T20:35:36.380Z,1.10
2023-04-30T20:38:41.709Z,1.05
2023-04-30T20:41:48.069Z,1.40
2023-04-30T20:44:53.786Z,1.20
2023-04-30T20:47:58.837Z,1.30
2023-04-30T20:51:03.724Z,1.20
2023-04-30T20:54:09.505Z,1.35
2023-04-30T20:57:14.424Z,1.27
2023-04-30T21:00:19.795Z,1.40
2023-04-30T21:03:24.672Z,1.45
2023-04-30T21:06:29.320Z,1.20
2023-04-30T21:09:35.599Z,1.40
2023-04-30T21:12:40.300Z,1.17
2023-04-30T21:15:45.520Z,1.25
2023-04-30T21:18:50.121Z,1.20
2023-04-30T21:21:55.296Z,1.40
2023-04-30T21:25:00.072Z,1.40
2023-04-30T21:28:04.941Z,1.40
2023-04-30T21:31:09.472Z,1.17
2023-04-30T21:34:13.748Z,1.17
2023-04-30T21:37:18.320Z,1.27
2023-04-30T21:40:23.074Z,1.40
2023-04-30T21:43:27.834Z,1.30
2023-04-30T21:46:32.139Z,1.40
2023-04-30T21:49:36.889Z,1.25
2023-04-30T21:52:41.648Z,1.40
2023-04-30T21:55:48.172Z,1.67
2023-04-30T21:58:52.451Z,1.38
2023-04-30T22:01:57.661Z,1.27
2023-04-30T22:05:04.148Z,1.40
2023-04-30T22:08:08.922Z,1.38
2023-04-30T22:11:13.501Z,1.58
2023-04-30T22:14:18.440Z,1.75
2023-04-30T22:17:23.365Z,1.45
2023-04-30T22:20:28.279Z,1.70
2023-04-30T22:23:33.274Z,1.67
2023-04-30T22:26:40.210Z,1.90
2023-04-30T22:29:44.946Z,1.50
2023-04-30T22:32:49.247Z,1.85
2023-04-30T22:35:55.325Z,1.48
2023-04-30T22:39:00.198Z,1.70
2023-04-30T22:42:05.808Z,1.60
2023-04-30T22:45:10.646Z,1.70
2023-04-30T22:48:15.963Z,2.10
2023-04-30T22:51:20.624Z,1.40
2023-04-30T22:54:25.314Z,1.65
2023-04-30T22:57:30.063Z,1.50
2023-04-30T23:00:34.904Z,2.17
2023-04-30T23:03:39.623Z,1.73
2023-04-30T23:06:44.654Z,1.70
2023-04-30T23:09:48.871Z,1.77
2023-04-30T23:12:55.453Z,1.70
2023-04-30T23:16:05.756Z,1.75
2023-04-30T23:19:10.941Z,1.70
2023-04-30T23:22:16.942Z,1.80
2023-04-30T23:25:21.637Z,1.65
2023-04-30T23:28:27.304Z,1.70
2023-04-30T23:31:32.164Z,1.80
2023-04-30T23:34:36.926Z,1.83
2023-04-30T23:37:41.689Z,1.70
2023-04-30T23:40:46.260Z,1.75
2023-04-30T23:43:51.227Z,1.95
2023-04-30T23:46:55.979Z,1.70
2023-04-30T23:50:00.802Z,1.95
2023-04-30T23:53:05.369Z,2.40
2023-04-30T23:56:09.687Z,1.67
2023-04-30T23:59:14.582Z,1.63
